KILM/ILM METAR and TAF weather

Enter ICAO airport designator
Station Type Date Time Source
KILM METAR 2021/07/29 17:53 UTC NOAA

KILM 291753Z 00000KT 10SM FEW045 33/23 A3000 RMK AO2 SLP160 T03330228 10339 20233 58013


Station Type Date Time Source
KILM Decoded METAR 2021/07/29 17:53 UTC NOAA

WILMINGTON INT'L AIRPORT, NC, United States (KILM) 34-16N 077-54W 9M
Jul 29, 2021 - 01:53 PM EDT / 2021.07.29 1753 UTC
Wind: Calm:0
Visibility: 10 mile(s):0
Sky conditions: mostly clear
Temperature: 91.9 F (33.3 C)
Heat index: 100.6 F (38.1 C):1
Dew Point: 73.0 F (22.8 C)
Relative Humidity: 54%
Pressure (altimeter): 30 in. Hg (1015 hPa)
Pressure tendency: 0.04 inches (1.3 hPa) lower than three hours ago
ob: KILM 291753Z 00000KT 10SM FEW045 33/23 A3000 RMK AO2 SLP160 T03330228 10339 20233 58013
cycle: 18

Station Type Date Time Source
KILM TAF 2021/07/29 14:09 UTC NOAA

TAF
AMD KILM 291407Z 2914/3012 VRB03KT P6SM SCT015
FM291800 16008KT P6SM FEW050
FM300300 20006KT P6SM SKC
FM300900 23006KT P6SM FEW150

Example: see airport list